Aviation Digital Data Service (ADDS)

Output produced by METARs form (1520 UTC 26 April 2018)
found at http://aviationweather.gov/adds/metars/
 
METAR text: KMHR 261445Z 15009KT 10SM SCT090 11/09 A2998
Conditions at: KMHR (MATHER FIELD , CA, US) observed 1445 UTC 26 April 2018
Temperature: 11.0°C (52°F)
Dewpoint: 9.0°C (48°F) [RH = 87%]
Pressure (altimeter): 29.98 inches Hg (1015.3 mb)
Winds: from the SSE (150 degrees) at 10 MPH (9 knots; 4.7 m/s)
Visibility: 10 or more miles (16+ km)
Ceiling: at least 12,000 feet AGL
Clouds: scattered clouds at 9000 feet AGL
Weather: no significant weather observed at this time

Forecast for: KMHR (MATHER FIELD , CA, US)
Text: KMHR 261122Z 2612/2712 15007KT P6SM SCT250
Forecast period: 1200 to 2000 UTC 26 April 2018
Forecast type: FROM: standard forecast or significant change
Winds: from the SSE (150 degrees) at 8 MPH (7 knots; 3.6 m/s)
Visibility: 6 or more miles (10+ km)
Clouds: scattered clouds at 25000 feet AGL
Weather: no significant weather forecast for this period
Forecast for: KMHR (MATHER FIELD , CA, US)
Text: KMHR 261122Z 2612/2712 15007KT P6SM SCT250
Forecast period: 1200 to 2000 UTC 26 April 2018
Forecast type: FROM: standard forecast or significant change
Winds: from the SSE (150 degrees) at 8 MPH (7 knots; 3.6 m/s)
Visibility: 6 or more miles (10+ km)
Clouds: scattered clouds at 25000 feet AGL
Weather: no significant weather forecast for this period
Forecast for: KMHR (MATHER FIELD , CA, US)
Text: KMHR 261122Z 2612/2712 15007KT P6SM SCT250
Forecast period: 2000 UTC 26 April 2018 to 0600 UTC 27 April 2018
Forecast type: FROM: standard forecast or significant change
Winds: from the SSW (210 degrees) at 8 MPH (7 knots; 3.6 m/s)
Visibility: 6 or more miles (10+ km)
Clouds: scattered clouds at 25000 feet AGL
Weather: no significant weather forecast for this period
Forecast for: KMHR (MATHER FIELD , CA, US)
Text: KMHR 261122Z 2612/2712 15007KT P6SM SCT250
Forecast period: 2000 UTC 26 April 2018 to 0600 UTC 27 April 2018
Forecast type: FROM: standard forecast or significant change
Winds: from the SSW (210 degrees) at 8 MPH (7 knots; 3.6 m/s)
Visibility: 6 or more miles (10+ km)
Clouds: scattered clouds at 25000 feet AGL
Weather: no significant weather forecast for this period
Forecast for: KMHR (MATHER FIELD , CA, US)
Text: KMHR 261122Z 2612/2712 15007KT P6SM SCT250
Forecast period: 0600 to 1200 UTC 27 April 2018
Forecast type: FROM: standard forecast or significant change
Winds: from the SSE (150 degrees) at 12 MPH (10 knots; 5.2 m/s)
Visibility: 6 or more miles (10+ km)
Clouds: scattered clouds at 25000 feet AGL
Weather: no significant weather forecast for this period
Forecast for: KMHR (MATHER FIELD , CA, US)
Text: KMHR 261122Z 2612/2712 15007KT P6SM SCT250
Forecast period: 0600 to 1200 UTC 27 April 2018
Forecast type: FROM: standard forecast or significant change
Winds: from the SSE (150 degrees) at 12 MPH (10 knots; 5.2 m/s)
Visibility: 6 or more miles (10+ km)
Clouds: scattered clouds at 25000 feet AGL
Weather: no significant weather forecast for this period